Time;durP1;ratioP1;P1;durP2;ratioP2;P2;SDS_P1;SDS_P2;PMS_P1;PMS_P2;Temp;Humidity;BMP_temperature;BMP_pressure;BME280_temperature;BME280_humidity;BME280_pressure;Samples;Min_cycle;Max_cycle;Signal;HPM_P1;HPM_P2
2021/08/05 00:00:42;;;;;;;17.80;6.83;;;;;;;13.07;75.94;98611.36;2210460;81;20962;-62
2021/08/05 00:03:44;;;;;;;20.75;7.72;;;;;;;13.16;76.21;98615.47;2188210;81;21050;-57
2021/08/05 00:06:45;;;;;;;18.12;6.90;;;;;;;13.18;75.95;98620.13;2210230;81;20982;-60
2021/08/05 00:09:45;;;;;;;19.82;7.10;;;;;;;13.15;76.00;98617.73;2210354;81;21002;-58
2021/08/05 00:12:46;;;;;;;27.98;13.25;;;;;;;13.17;76.26;98606.63;2210195;81;21703;-62
2021/08/05 00:15:46;;;;;;;25.35;10.75;;;;;;;13.22;76.52;98597.55;2210039;81;20982;-57
2021/08/05 00:18:47;;;;;;;24.40;7.37;;;;;;;13.25;76.68;98596.81;2210592;81;20959;-57
2021/08/05 00:21:47;;;;;;;19.25;7.22;;;;;;;13.30;76.53;98597.32;2210473;81;20946;-57
2021/08/05 00:24:47;;;;;;;24.23;8.68;;;;;;;13.37;76.44;98587.66;2210428;81;21038;-59
2021/08/05 00:27:48;;;;;;;22.45;7.70;;;;;;;13.40;76.55;98588.25;2210442;81;20951;-57
2021/08/05 00:30:48;;;;;;;25.62;8.93;;;;;;;13.39;76.58;98587.91;2210240;81;20983;-60
2021/08/05 00:33:49;;;;;;;24.90;7.42;;;;;;;13.34;76.55;98578.16;2210454;81;21540;-59
2021/08/05 00:36:49;;;;;;;20.15;6.40;;;;;;;13.29;76.74;98574.56;2210441;81;21529;-60
2021/08/05 00:39:49;;;;;;;24.75;7.15;;;;;;;13.33;76.85;98569.88;2210552;81;20986;-63
2021/08/05 00:42:50;;;;;;;22.45;6.67;;;;;;;13.37;77.00;98565.27;2210325;81;20946;-63
2021/08/05 00:45:50;;;;;;;22.70;6.95;;;;;;;13.43;76.83;98563.02;2210666;81;20939;-59
2021/08/05 00:48:51;;;;;;;20.97;6.97;;;;;;;13.46;76.66;98558.81;2209950;81;20983;-62
2021/08/05 00:51:52;;;;;;;20.45;6.55;;;;;;;13.43;76.53;98562.15;2210249;81;21021;-59
2021/08/05 00:54:52;;;;;;;19.50;7.20;;;;;;;13.42;76.83;98552.56;2209930;81;21006;-60
2021/08/05 00:57:53;;;;;;;19.45;5.65;;;;;;;13.43;76.92;98548.52;2210517;81;21034;-62
2021/08/05 01:00:55;;;;;;;23.90;7.60;;;;;;;13.57;76.97;98547.92;2209901;81;21089;-63
2021/08/05 01:03:56;;;;;;;;;;;;;;;13.68;76.77;98545.29;2213286;81;21528;-58
2021/08/05 01:06:57;;;;;;;24.18;7.47;;;;;;;13.67;76.68;98545.75;2210246;81;20139;-57
2021/08/05 01:09:57;;;;;;;21.27;8.03;;;;;;;13.78;76.80;98542.78;2210117;81;21025;-58
2021/08/05 01:12:58;;;;;;;24.60;8.00;;;;;;;13.82;76.39;98547.68;2210346;81;21465;-58
2021/08/05 01:15:58;;;;;;;25.50;7.72;;;;;;;13.78;76.53;98548.88;2216921;80;21501;-58
2021/08/05 01:18:58;;;;;;;29.05;8.75;;;;;;;13.76;76.76;98547.31;2220494;80;20962;-60
2021/08/05 01:22:00;;;;;;;27.20;6.92;;;;;;;13.84;77.07;98551.52;2220784;80;20974;-60
2021/08/05 01:25:00;;;;;;;22.97;7.13;;;;;;;13.89;76.92;98544.55;2220780;80;21017;-57
2021/08/05 01:28:01;;;;;;;39.42;7.53;;;;;;;13.80;76.96;98541.67;2220589;80;21029;-62
2021/08/05 01:31:01;;;;;;;27.75;7.65;;;;;;;13.80;77.05;98551.39;2220559;80;21500;-57
2021/08/05 01:34:02;;;;;;;21.85;7.30;;;;;;;13.79;76.99;98549.25;2220512;80;21044;-60
2021/08/05 01:37:02;;;;;;;19.65;6.90;;;;;;;13.77;77.14;98549.83;2220734;80;20986;-57
2021/08/05 01:40:03;;;;;;;21.35;6.60;;;;;;;13.69;77.28;98537.27;2220298;80;21077;-60
2021/08/05 01:43:04;;;;;;;31.75;6.70;;;;;;;13.66;77.48;98533.55;2220640;80;20942;-60
2021/08/05 01:46:04;;;;;;;20.62;6.90;;;;;;;13.64;77.51;98527.55;2220644;80;20938;-59
2021/08/05 01:49:05;;;;;;;23.98;8.08;;;;;;;13.66;77.51;98511.61;2220514;80;21426;-57
2021/08/05 01:52:05;;;;;;;30.00;13.10;;;;;;;13.68;77.62;98511.86;2220538;80;20993;-57
2021/08/05 01:55:05;;;;;;;28.65;10.00;;;;;;;13.75;77.94;98503.00;2220527;80;21856;-58
2021/08/05 01:58:06;;;;;;;28.40;9.65;;;;;;;13.83;78.18;98497.11;2220512;80;21021;-58
2021/08/05 02:01:06;;;;;;;27.27;9.38;;;;;;;13.90;78.55;98494.83;2220478;80;21631;-57
2021/08/05 02:04:07;;;;;;;28.07;9.33;;;;;;;13.95;78.70;98484.27;2220412;80;21128;-58
2021/08/05 02:07:07;;;;;;;23.42;8.70;;;;;;;13.99;78.91;98487.02;2220753;80;20974;-59
2021/08/05 02:10:08;;;;;;;24.10;10.15;;;;;;;13.99;78.70;98473.84;2220776;80;20986;-59
2021/08/05 02:13:08;;;;;;;26.48;10.35;;;;;;;14.07;78.74;98477.66;2220586;80;20949;-59
2021/08/05 02:16:09;;;;;;;25.10;10.58;;;;;;;14.19;78.80;98485.88;2219822;80;21017;-57
2021/08/05 02:19:09;;;;;;;28.90;10.23;;;;;;;14.27;78.46;98487.41;2220600;80;20965;-60
2021/08/05 02:22:09;;;;;;;26.10;9.50;;;;;;;14.31;78.48;98484.87;2220522;80;21463;-59
2021/08/05 02:25:10;;;;;;;23.92;9.03;;;;;;;14.32;78.41;98479.11;2220554;80;21479;-57
2021/08/05 02:28:10;;;;;;;25.02;10.43;;;;;;;14.36;78.56;98470.81;2220803;80;20993;-58
2021/08/05 02:31:13;;;;;;;24.05;9.23;;;;;;;14.46;78.66;98470.07;2220233;80;21048;-60
2021/08/05 02:34:13;;;;;;;;;;;;;;;14.50;78.52;98475.45;2192962;80;20993;-58
2021/08/05 02:37:14;;;;;;;26.00;10.15;;;;;;;14.48;78.75;98474.72;2220585;80;20096;-60
2021/08/05 02:40:14;;;;;;;24.32;9.88;;;;;;;14.44;78.90;98470.66;2220035;80;21014;-57
2021/08/05 02:43:15;;;;;;;24.52;9.33;;;;;;;14.42;79.01;98468.16;2220591;80;20993;-58
2021/08/05 02:46:15;;;;;;;22.93;9.03;;;;;;;14.43;78.79;98472.48;2220562;80;21528;-58
2021/08/05 02:49:16;;;;;;;21.42;8.80;;;;;;;14.46;79.01;98477.49;2220534;80;21503;-61
2021/08/05 02:52:16;;;;;;;24.40;9.20;;;;;;;14.53;79.15;98484.44;2220377;80;21040;-58
2021/08/05 02:55:17;;;;;;;23.45;10.03;;;;;;;14.65;79.44;98486.09;2220701;80;20981;-59
2021/08/05 02:58:17;;;;;;;24.07;11.38;;;;;;;14.76;79.29;98491.78;2220334;80;21013;-58
2021/08/05 03:01:17;;;;;;;24.18;11.40;;;;;;;14.80;79.01;98489.73;2220332;80;20973;-62
2021/08/05 03:04:18;;;;;;;22.90;9.60;;;;;;;14.81;79.20;98490.92;2220403;80;21049;-61
2021/08/05 03:07:18;;;;;;;22.37;8.78;;;;;;;14.84;79.17;98488.48;2220529;80;21001;-57
2021/08/05 03:10:19;;;;;;;25.10;9.50;;;;;;;14.88;79.27;98489.91;2220473;80;21515;-58
2021/08/05 03:13:19;;;;;;;23.38;9.25;;;;;;;14.99;79.51;98489.84;2220559;80;20989;-59
2021/08/05 03:16:20;;;;;;;25.82;10.68;;;;;;;15.00;79.29;98489.38;2220158;80;20993;-58
2021/08/05 03:19:20;;;;;;;23.00;10.03;;;;;;;14.89;79.38;98489.78;2220718;80;20994;-58
2021/08/05 03:22:21;;;;;;;23.85;9.45;;;;;;;14.89;79.34;98490.27;2220749;80;21009;-58
2021/08/05 03:25:21;;;;;;;24.63;9.40;;;;;;;14.89;79.22;98492.42;2220469;80;21064;-62
2021/08/05 03:28:22;;;;;;;26.80;10.40;;;;;;;14.90;79.39;98491.46;2220350;80;21498;-58
2021/08/05 03:31:22;;;;;;;24.55;10.08;;;;;;;14.94;79.77;98493.38;2220348;80;21492;-57
2021/08/05 03:34:23;;;;;;;27.27;11.73;;;;;;;15.01;79.44;98491.03;2220419;80;20981;-60
2021/08/05 03:37:23;;;;;;;27.25;12.07;;;;;;;15.13;79.85;98490.00;2220683;80;21021;-57
2021/08/05 03:40:23;;;;;;;26.70;13.00;;;;;;;15.18;79.46;98490.92;2220579;80;20956;-58
2021/08/05 03:43:24;;;;;;;28.00;12.00;;;;;;;15.18;79.66;98483.00;2220210;80;20978;-58
2021/08/05 03:46:24;;;;;;;26.62;11.10;;;;;;;15.19;79.79;98489.47;2220862;80;20997;-57
2021/08/05 03:49:25;;;;;;;27.95;12.18;;;;;;;15.20;79.66;98485.02;2220589;80;20997;-57
2021/08/05 03:52:25;;;;;;;27.25;11.65;;;;;;;15.24;79.96;98479.83;2220634;80;21543;-59
2021/08/05 03:55:26;;;;;;;25.43;11.85;;;;;;;15.30;79.95;98480.64;2220664;80;21492;-62
2021/08/05 03:58:26;;;;;;;27.30;12.05;;;;;;;15.39;80.06;98481.16;2220699;80;21000;-59
2021/08/05 04:01:27;;;;;;;25.12;11.50;;;;;;;15.52;80.00;98481.42;2220720;80;21045;-61
2021/08/05 04:04:28;;;;;;;22.30;9.55;;;;;;;15.59;79.60;98487.84;2220384;80;21079;-59
2021/08/05 04:07:28;;;;;;;24.65;9.00;;;;;;;15.64;79.49;98482.98;2220260;80;21009;-60
2021/08/05 04:10:29;;;;;;;26.25;10.75;;;;;;;15.50;79.35;98480.23;2220672;80;21563;-61
2021/08/05 04:13:29;;;;;;;23.87;9.85;;;;;;;15.46;79.73;98477.97;2220609;80;20990;-58
2021/08/05 04:16:29;;;;;;;24.75;10.60;;;;;;;15.41;79.94;98475.73;2220342;80;21484;-60
2021/08/05 04:19:30;;;;;;;25.00;10.38;;;;;;;15.27;80.34;98473.45;2220479;80;21060;-58
2021/08/05 04:22:30;;;;;;;25.10;10.58;;;;;;;15.15;80.64;98471.38;2220578;80;20966;-62
2021/08/05 04:25:31;;;;;;;24.37;11.20;;;;;;;15.09;80.79;98471.42;2220797;80;20965;-60
2021/08/05 04:28:31;;;;;;;26.30;10.25;;;;;;;15.03;81.06;98464.85;2221064;80;20945;-58
2021/08/05 04:31:32;;;;;;;22.25;9.33;;;;;;;15.00;81.44;98458.52;2220620;80;20985;-59
2021/08/05 04:34:32;;;;;;;21.80;9.33;;;;;;;14.93;81.51;98450.77;2220699;80;20973;-59
2021/08/05 04:37:33;;;;;;;21.90;8.95;;;;;;;14.89;81.74;98444.89;2220242;80;21496;-59
2021/08/05 04:40:33;;;;;;;21.97;8.55;;;;;;;14.92;81.84;98435.05;2220506;80;21406;-59
2021/08/05 04:43:33;;;;;;;21.62;8.95;;;;;;;14.92;81.88;98431.92;2220702;80;20934;-61
2021/08/05 04:46:34;;;;;;;21.70;9.20;;;;;;;14.94;82.17;98425.19;2220413;80;20993;-58
2021/08/05 04:49:34;;;;;;;22.90;10.60;;;;;;;14.96;82.36;98420.63;2220886;80;20946;-59
2021/08/05 04:52:35;;;;;;;25.10;9.95;;;;;;;14.94;82.62;98410.20;2220584;80;21013;-58
2021/08/05 04:55:35;;;;;;;22.90;9.23;;;;;;;14.92;82.80;98408.16;2220785;80;20957;-56
2021/08/05 04:58:36;;;;;;;21.95;9.45;;;;;;;14.94;83.02;98408.87;2220782;80;21480;-58
2021/08/05 05:01:36;;;;;;;24.92;10.05;;;;;;;14.97;83.06;98405.97;2220746;80;21492;-58
2021/08/05 05:04:36;;;;;;;26.15;10.08;;;;;;;15.00;83.00;98408.34;2220749;80;21009;-60
2021/08/05 05:07:37;;;;;;;24.30;10.32;;;;;;;15.06;83.13;98406.98;2220617;80;20974;-59
2021/08/05 05:10:37;;;;;;;25.70;11.22;;;;;;;15.12;82.87;98405.12;2220890;80;21029;-57
2021/08/05 05:13:38;;;;;;;24.55;10.60;;;;;;;15.16;82.95;98409.17;2220474;80;20990;-59
2021/08/05 05:16:38;;;;;;;26.30;11.28;;;;;;;15.23;82.73;98398.92;2220616;80;20970;-59
2021/08/05 05:19:39;;;;;;;23.65;10.72;;;;;;;15.28;82.66;98401.98;2220375;80;21095;-58
2021/08/05 05:22:39;;;;;;;25.88;12.00;;;;;;;15.38;82.84;98400.20;2220750;80;21426;-58
2021/08/05 05:25:40;;;;;;;24.87;11.68;;;;;;;15.42;82.62;98395.00;2220723;80;20998;-56
2021/08/05 05:28:40;;;;;;;24.65;11.45;;;;;;;15.49;82.91;98395.30;2220801;80;20974;-61
2021/08/05 05:31:40;;;;;;;27.60;11.57;;;;;;;15.48;82.62;98389.66;2220737;80;20954;-57
2021/08/05 05:34:41;;;;;;;26.27;11.78;;;;;;;15.50;82.70;98387.73;2220841;80;20923;-57
2021/08/05 05:37:41;;;;;;;27.52;12.05;;;;;;;15.54;82.96;98392.25;2220587;80;20966;-60
2021/08/05 05:40:42;;;;;;;28.57;12.15;;;;;;;15.56;82.96;98385.86;2220658;80;21044;-61
2021/08/05 05:43:42;;;;;;;24.90;11.83;;;;;;;15.66;82.76;98388.99;2220746;80;21488;-60
2021/08/05 05:46:42;;;;;;;29.67;13.38;;;;;;;15.78;82.80;98393.70;2220590;80;20989;-57
2021/08/05 05:49:43;;;;;;;26.25;13.15;;;;;;;15.84;82.48;98389.20;2220785;80;20978;-57
2021/08/05 05:52:44;;;;;;;30.20;15.58;;;;;;;15.88;82.55;98386.14;2220411;80;21009;-57
2021/08/05 05:55:44;;;;;;;28.00;14.58;;;;;;;15.88;82.72;98380.84;2220597;80;20985;-61
2021/08/05 05:58:44;;;;;;;26.97;13.65;;;;;;;15.86;82.93;98379.31;2220610;80;20966;-59
2021/08/05 06:01:45;;;;;;;27.87;13.58;;;;;;;15.88;83.16;98375.56;2220599;80;21445;-59
2021/08/05 06:04:45;;;;;;;28.35;13.88;;;;;;;15.94;82.93;98378.14;2220603;80;21496;-56
2021/08/05 06:07:46;;;;;;;30.15;15.20;;;;;;;15.98;83.20;98380.86;2220504;80;21056;-62
2021/08/05 06:10:46;;;;;;;29.57;16.02;;;;;;;15.98;83.40;98371.61;2220630;80;21025;-59
2021/08/05 06:13:47;;;;;;;33.53;17.92;;;;;;;15.95;83.54;98363.95;2220825;80;20962;-58
2021/08/05 06:16:47;;;;;;;31.17;16.32;;;;;;;15.93;83.57;98365.41;2220439;80;21003;-57
2021/08/05 06:19:47;;;;;;;30.27;16.73;;;;;;;15.94;83.18;98370.20;2220574;80;20957;-59
2021/08/05 06:22:48;;;;;;;30.27;16.97;;;;;;;16.03;83.24;98375.15;2220461;80;21513;-61
2021/08/05 06:25:49;;;;;;;32.08;18.65;;;;;;;16.09;83.07;98375.44;2220492;80;21472;-57
2021/08/05 06:28:49;;;;;;;33.18;19.73;;;;;;;16.17;83.01;98369.93;2220733;80;20969;-65
2021/08/05 06:31:49;;;;;;;32.05;18.20;;;;;;;16.20;83.20;98358.56;2220644;80;21008;-60
2021/08/05 06:34:50;;;;;;;33.33;18.90;;;;;;;16.17;83.37;98354.06;2220832;80;20969;-58
2021/08/05 06:37:51;;;;;;;32.08;18.30;;;;;;;16.14;83.95;98347.23;2220575;80;20942;-57
2021/08/05 06:40:52;;;;;;;34.03;18.48;;;;;;;16.13;83.77;98349.52;2220780;80;21053;-58
2021/08/05 06:43:52;;;;;;;31.45;17.70;;;;;;;16.24;83.56;98361.78;2220547;80;21523;-59
2021/08/05 06:46:53;;;;;;;31.07;16.75;;;;;;;16.35;83.57;98356.34;2220822;80;21234;-59
2021/08/05 06:49:54;;;;;;;31.48;17.12;;;;;;;16.44;82.88;98342.73;2220206;80;21144;-61
2021/08/05 06:52:54;;;;;;;28.55;15.98;;;;;;;16.47;83.41;98340.30;2220562;80;20989;-60
2021/08/05 06:55:55;;;;;;;31.85;16.48;;;;;;;16.55;83.16;98339.92;2220668;80;20986;-64
2021/08/05 06:58:55;;;;;;;30.70;16.85;;;;;;;16.61;83.42;98341.16;2220579;80;20931;-59
2021/08/05 07:01:56;;;;;;;29.77;16.57;;;;;;;16.73;83.28;98339.99;2220484;80;21849;-59
2021/08/05 07:05:01;;;;;;;31.45;15.75;;;;;;;16.85;82.80;98348.62;2220438;80;20981;-59
2021/08/05 07:07:58;;;;;;;;;;;;;;;16.95;83.03;98337.52;2193010;80;20958;-59
2021/08/05 07:10:59;;;;;;;27.90;14.80;;;;;;;17.00;82.90;98337.08;2220523;80;20108;-57
2021/08/05 07:13:59;;;;;;;29.42;14.95;;;;;;;16.93;82.69;98337.31;2220561;80;20969;-61
2021/08/05 07:17:00;;;;;;;27.73;14.33;;;;;;;16.92;82.85;98334.31;2216581;79;21058;-58
2021/08/05 07:20:00;;;;;;;27.17;14.35;;;;;;;16.93;82.46;98346.09;2210680;81;20951;-57
2021/08/05 07:23:00;;;;;;;27.52;14.28;;;;;;;16.88;82.71;98339.55;2210774;81;21019;-62
2021/08/05 07:26:01;;;;;;;30.12;15.95;;;;;;;16.79;82.88;98341.23;2210015;81;20955;-61
2021/08/05 07:29:02;;;;;;;31.07;16.87;;;;;;;16.78;82.77;98335.61;2210343;81;21026;-58
2021/08/05 07:32:04;;;;;;;31.63;16.87;;;;;;;16.73;83.17;98333.88;2210382;81;21102;-57
2021/08/05 07:35:05;;;;;;;29.27;15.07;;;;;;;16.68;83.19;98337.44;2210891;81;20954;-57
2021/08/05 07:38:05;;;;;;;30.90;15.28;;;;;;;16.63;83.25;98334.72;2210629;81;20979;-58
2021/08/05 07:41:06;;;;;;;27.62;15.00;;;;;;;16.67;83.82;98323.87;2210316;81;21356;-57
2021/08/05 07:44:06;;;;;;;27.17;13.68;;;;;;;16.66;83.84;98324.34;2210495;80;20993;-59
2021/08/05 07:47:06;;;;;;;27.65;14.13;;;;;;;16.65;83.91;98322.69;2210627;80;20986;-58
2021/08/05 07:50:09;;;;;;;26.35;14.20;;;;;;;16.68;83.69;98318.42;2210316;81;20987;-62
2021/08/05 07:53:09;;;;;;;;;;;;;;;16.86;83.89;98308.39;2191384;81;20951;-60
2021/08/05 07:56:10;;;;;;;28.23;13.80;;;;;;;17.14;82.93;98310.59;2210456;81;20104;-60
2021/08/05 07:59:10;;;;;;;29.07;14.30;;;;;;;17.14;82.93;98310.59;2210458;80;21445;-62
2021/08/05 08:02:11;;;;;;;27.17;13.78;;;;;;;17.16;83.03;98313.91;2210694;81;21010;-61
2021/08/05 08:05:14;;;;;;;27.35;13.93;;;;;;;17.20;82.95;98317.12;2210597;81;21026;-58
2021/08/05 08:08:16;;;;;;;25.37;13.80;;;;;;;17.33;82.96;98307.48;2188578;81;21002;-59
2021/08/05 08:11:22;;;;;;;;;;;;;;;17.30;82.24;98301.98;2191412;81;21014;-58
2021/08/05 08:14:18;;;;;;;28.45;15.25;;;;;;;17.22;82.18;98298.73;2188858;81;20113;-64
2021/08/05 08:17:21;;;;;;;;;;;;;;;17.08;82.39;98301.89;2195019;80;20986;-59
2021/08/05 08:20:21;;;;;;;25.10;13.55;;;;;;;17.05;83.08;98292.91;2220902;80;20109;-62
2021/08/05 08:23:22;;;;;;;25.20;13.28;;;;;;;17.03;83.05;98291.73;2220949;80;21041;-61
2021/08/05 08:26:22;;;;;;;27.67;13.65;;;;;;;17.02;82.68;98298.02;2220674;80;21021;-59
2021/08/05 08:29:22;;;;;;;24.72;12.82;;;;;;;17.02;83.11;98297.19;2221120;80;20966;-61
2021/08/05 08:32:23;;;;;;;26.05;13.35;;;;;;;17.01;82.80;98298.16;2221165;80;20978;-64
2021/08/05 08:35:23;;;;;;;26.65;12.90;;;;;;;17.08;82.95;98289.97;2221072;80;20977;-60
2021/08/05 08:38:24;;;;;;;25.75;13.43;;;;;;;17.11;82.65;98290.52;2221071;80;21006;-59
2021/08/05 08:41:24;;;;;;;25.35;12.60;;;;;;;17.18;82.85;98292.56;2220976;80;21037;-58
2021/08/05 08:44:25;;;;;;;25.32;13.08;;;;;;;17.27;82.99;98291.19;2221048;80;21442;-62
2021/08/05 08:47:25;;;;;;;26.62;12.75;;;;;;;17.42;82.73;98294.64;2221327;80;20930;-58
2021/08/05 08:50:26;;;;;;;25.65;12.45;;;;;;;17.45;82.34;98295.67;2221041;80;21088;-58
2021/08/05 08:53:27;;;;;;;25.35;11.85;;;;;;;17.51;82.36;98292.41;2220746;80;21115;-60
2021/08/05 08:56:27;;;;;;;23.95;11.35;;;;;;;17.53;82.11;98291.78;2220905;80;21023;-61
2021/08/05 08:59:27;;;;;;;24.10;11.83;;;;;;;17.53;81.99;98293.58;2221003;80;21519;-59
2021/08/05 09:02:28;;;;;;;22.67;11.60;;;;;;;17.48;81.97;98296.22;2221050;80;21555;-59
2021/08/05 09:05:28;;;;;;;24.77;11.78;;;;;;;17.42;82.01;98301.27;2220874;80;20989;-59
2021/08/05 09:08:29;;;;;;;24.37;11.50;;;;;;;17.38;82.22;98300.72;2221024;80;21001;-58
2021/08/05 09:11:29;;;;;;;23.32;11.15;;;;;;;17.36;82.16;98300.55;2221117;80;21001;-59
2021/08/05 09:14:30;;;;;;;23.40;10.72;;;;;;;17.25;81.95;98302.41;2221037;80;20975;-58
2021/08/05 09:17:30;;;;;;;21.85;10.55;;;;;;;17.23;82.41;98298.27;2220789;80;21072;-57
2021/08/05 09:20:31;;;;;;;23.05;10.93;;;;;;;17.20;82.25;98294.59;2220465;80;21034;-58
2021/08/05 09:23:32;;;;;;;23.30;10.63;;;;;;;17.19;82.41;98292.41;2220322;80;21453;-59
2021/08/05 09:26:33;;;;;;;22.52;10.32;;;;;;;17.17;82.69;98292.21;2220395;80;21093;-59
2021/08/05 09:29:34;;;;;;;23.62;10.38;;;;;;;17.07;83.08;98286.49;2220974;80;21552;-57
2021/08/05 09:32:35;;;;;;;22.07;10.03;;;;;;;17.03;82.89;98286.44;2220842;80;21117;-57
2021/08/05 09:35:35;;;;;;;21.37;9.25;;;;;;;17.11;83.44;98283.04;2220511;80;21022;-59
2021/08/05 09:38:36;;;;;;;21.95;9.13;;;;;;;17.11;83.15;98285.69;2220906;80;21528;-60
2021/08/05 09:41:36;;;;;;;22.07;8.98;;;;;;;17.12;83.00;98280.27;2220579;80;21000;-57
2021/08/05 09:44:37;;;;;;;21.45;9.10;;;;;;;17.10;82.81;98284.05;2220557;80;21042;-60
2021/08/05 09:47:37;;;;;;;20.43;9.10;;;;;;;17.13;82.94;98287.22;2220488;80;21515;-58
2021/08/05 09:50:37;;;;;;;21.48;9.75;;;;;;;17.19;82.66;98274.37;2220571;80;20973;-57
2021/08/05 09:53:38;;;;;;;21.73;9.88;;;;;;;17.16;82.86;98273.34;2220293;80;21013;-59
2021/08/05 09:56:39;;;;;;;21.35;10.13;;;;;;;17.18;83.29;98273.52;2220732;80;21002;-58
2021/08/05 09:59:39;;;;;;;23.83;10.55;;;;;;;17.21;83.12;98273.24;2220693;80;20958;-58
2021/08/05 10:02:39;;;;;;;21.75;10.68;;;;;;;17.21;83.57;98276.36;2220608;80;20990;-58
2021/08/05 10:05:40;;;;;;;23.62;11.12;;;;;;;17.22;83.50;98273.56;2220490;80;21002;-61
2021/08/05 10:08:41;;;;;;;21.82;10.53;;;;;;;17.20;83.56;98264.94;2220651;80;20954;-57
2021/08/05 10:11:46;;;;;;;23.07;11.25;;;;;;;17.17;83.85;98264.39;2220457;80;21081;-60
2021/08/05 10:14:44;;;;;;;;;;;;;;;17.09;84.03;98261.17;2192982;80;21460;-59
2021/08/05 10:17:44;;;;;;;24.37;13.18;;;;;;;17.00;84.04;98256.78;2216400;79;20096;-57
2021/08/05 10:20:44;;;;;;;25.50;13.75;;;;;;;16.90;84.18;98255.50;2210674;81;20978;-58
2021/08/05 10:23:45;;;;;;;25.08;13.43;;;;;;;16.90;84.47;98249.70;2210333;81;20963;-58
2021/08/05 10:26:45;;;;;;;25.95;14.40;;;;;;;16.88;84.62;98245.53;2210458;81;21489;-60
2021/08/05 10:29:46;;;;;;;26.65;14.25;;;;;;;16.83;85.04;98243.80;2210258;81;21569;-60
2021/08/05 10:32:48;;;;;;;25.85;14.87;;;;;;;16.80;85.20;98242.27;2210473;80;21033;-57
2021/08/05 10:35:49;;;;;;;27.75;14.90;;;;;;;16.77;85.22;98231.98;2210359;81;20978;-57
2021/08/05 10:38:49;;;;;;;27.02;15.95;;;;;;;16.80;85.93;98223.73;2210297;81;20998;-57
2021/08/05 10:41:50;;;;;;;28.90;15.15;;;;;;;16.86;85.86;98206.42;2210336;81;21014;-60
2021/08/05 10:44:50;;;;;;;28.40;15.00;;;;;;;16.96;85.92;98209.87;2210248;81;21023;-57
2021/08/05 10:47:53;;;;;;;27.60;15.30;;;;;;;16.99;85.62;98212.72;2210462;81;21002;-57
2021/08/05 10:50:53;;;;;;;;;;;;;;;16.96;85.53;98202.75;2191274;81;21454;-57
2021/08/05 10:53:55;;;;;;;26.52;15.23;;;;;;;16.92;85.41;98196.11;2209940;81;20141;-60
2021/08/05 10:56:56;;;;;;;26.87;15.58;;;;;;;16.88;85.82;98193.88;2210317;81;21031;-58
2021/08/05 10:59:56;;;;;;;28.60;16.80;;;;;;;16.85;85.76;98195.48;2210240;81;21500;-57
2021/08/05 11:02:56;;;;;;;26.42;14.93;;;;;;;16.84;85.56;98191.16;2210155;81;20986;-58
2021/08/05 11:05:57;;;;;;;29.48;15.80;;;;;;;16.78;86.02;98187.31;2210398;81;20983;-57
2021/08/05 11:08:57;;;;;;;28.02;15.93;;;;;;;16.71;85.94;98183.59;2210534;81;20954;-58
2021/08/05 11:11:58;;;;;;;28.27;15.40;;;;;;;16.70;86.18;98181.92;2209944;81;21049;-59
2021/08/05 11:14:58;;;;;;;27.90;16.32;;;;;;;16.65;86.38;98171.78;2210436;81;21023;-58
2021/08/05 11:17:59;;;;;;;26.93;14.68;;;;;;;16.64;86.28;98172.75;2213997;80;21013;-58
2021/08/05 11:20:59;;;;;;;26.42;14.70;;;;;;;16.62;86.36;98162.31;2220560;80;21456;-57
2021/08/05 11:24:00;;;;;;;26.05;14.20;;;;;;;16.67;86.01;98155.74;2220562;80;21508;-57
2021/08/05 11:27:00;;;;;;;25.00;13.68;;;;;;;16.66;86.45;98149.59;2220704;80;21028;-57
2021/08/05 11:30:02;;;;;;;24.90;13.58;;;;;;;16.66;86.91;98142.16;2220643;80;20965;-60
2021/08/05 11:33:03;;;;;;;26.12;14.15;;;;;;;16.61;86.69;98140.78;2220640;80;21066;-58
2021/08/05 11:36:03;;;;;;;25.02;13.88;;;;;;;16.63;86.98;98130.86;2220573;80;21013;-61
2021/08/05 11:39:04;;;;;;;27.10;14.18;;;;;;;16.65;87.07;98122.80;2220036;80;21013;-58
2021/08/05 11:42:05;;;;;;;25.72;13.35;;;;;;;16.73;86.91;98122.04;2220689;80;21105;-57
2021/08/05 11:45:05;;;;;;;25.55;13.98;;;;;;;16.80;86.91;98119.13;2220340;80;21108;-57
2021/08/05 11:48:06;;;;;;;24.75;13.55;;;;;;;16.86;86.56;98115.05;2220260;80;21001;-58
2021/08/05 11:51:06;;;;;;;23.52;12.45;;;;;;;16.94;86.69;98110.69;2220516;80;21004;-58
2021/08/05 11:54:07;;;;;;;26.60;13.88;;;;;;;16.96;86.66;98105.23;2220707;80;21061;-57
2021/08/05 11:57:08;;;;;;;24.87;12.78;;;;;;;16.97;86.84;98098.97;2220377;80;21001;-57
2021/08/05 12:00:08;;;;;;;24.67;13.00;;;;;;;16.96;86.71;98097.30;2220545;80;20997;-58
2021/08/05 12:03:09;;;;;;;25.35;12.93;;;;;;;16.94;86.67;98096.13;2220566;80;20965;-57
2021/08/05 12:06:09;;;;;;;23.42;11.90;;;;;;;17.01;86.97;98084.44;2220286;80;21153;-58
2021/08/05 12:09:10;;;;;;;23.07;11.60;;;;;;;17.00;86.89;98082.77;2220562;80;21000;-59
2021/08/05 12:12:10;;;;;;;26.97;14.83;;;;;;;17.00;86.73;98076.14;2220789;80;20978;-61
2021/08/05 12:15:11;;;;;;;23.12;11.95;;;;;;;16.97;86.67;98068.51;2220935;80;20973;-59
2021/08/05 12:18:11;;;;;;;23.02;11.45;;;;;;;17.06;86.77;98063.60;2220589;79;20993;-60
2021/08/05 12:21:14;;;;;;;22.48;10.68;;;;;;;17.10;87.05;98054.36;2220600;80;20989;-59
2021/08/05 12:24:14;;;;;;;22.13;10.53;;;;;;;17.08;86.69;98054.17;2190249;80;21041;-58
2021/08/05 12:27:15;;;;;;;22.98;10.72;;;;;;;17.10;86.77;98053.55;2220740;80;20986;-60
2021/08/05 12:30:15;;;;;;;21.45;10.03;;;;;;;17.09;87.26;98043.42;2220685;80;21517;-59
2021/08/05 12:33:16;;;;;;;21.68;9.88;;;;;;;17.05;86.74;98047.86;2220345;80;21032;-61
2021/08/05 12:36:16;;;;;;;21.97;8.88;;;;;;;17.00;86.79;98042.21;2220970;80;21029;-58
2021/08/05 12:39:17;;;;;;;18.35;7.45;;;;;;;17.04;86.16;98036.91;2220762;80;20985;-63
2021/08/05 12:42:17;;;;;;;19.40;7.87;;;;;;;17.02;86.26;98033.09;2220806;80;20997;-61
2021/08/05 12:45:17;;;;;;;18.73;7.30;;;;;;;17.03;86.51;98028.15;2220590;80;20962;-63
2021/08/05 12:48:18;;;;;;;19.65;6.58;;;;;;;17.07;86.35;98028.69;2220724;80;20966;-62
2021/08/05 12:51:18;;;;;;;16.73;5.95;;;;;;;17.08;86.42;98029.86;2220623;80;21520;-62
2021/08/05 12:54:19;;;;;;;18.82;7.40;;;;;;;17.06;85.79;98023.86;2220502;80;21049;-64
2021/08/05 12:57:20;;;;;;;18.50;6.50;;;;;;;17.02;86.09;98019.86;2220441;80;20984;-65
2021/08/05 13:00:20;;;;;;;16.90;5.85;;;;;;;17.04;86.22;98023.20;2220590;80;21025;-60
2021/08/05 13:03:21;;;;;;;16.40;5.72;;;;;;;17.00;85.98;98022.34;2220788;80;20949;-62
2021/08/05 13:06:21;;;;;;;16.12;5.87;;;;;;;17.00;85.99;98019.70;2220654;80;20990;-60
2021/08/05 13:09:22;;;;;;;14.00;5.20;;;;;;;16.99;85.85;98021.49;2220571;80;21037;-62
2021/08/05 13:12:24;;;;;;;13.10;5.10;;;;;;;16.97;85.92;98017.67;2220612;80;21511;-65
2021/08/05 13:15:24;;;;;;;13.78;5.08;;;;;;;16.95;86.00;98013.51;2220808;80;21026;-59
2021/08/05 13:18:25;;;;;;;15.13;5.28;;;;;;;16.95;85.57;98009.54;2220751;80;20993;-59
2021/08/05 13:21:26;;;;;;;16.17;5.20;;;;;;;16.96;86.08;98000.11;2220117;80;20994;-59
2021/08/05 13:24:26;;;;;;;15.78;5.37;;;;;;;16.94;85.88;98000.77;2220683;80;21480;-58
2021/08/05 13:30:29;;;;;;;;;;;;;;;16.88;86.13;97993.92;2193007;80;20989;-57
2021/08/05 13:33:30;;;;;;;12.18;4.20;;;;;;;16.84;86.11;97982.80;2220667;80;20418;-60
2021/08/05 13:36:30;;;;;;;15.10;4.65;;;;;;;16.76;86.56;97994.13;2220785;80;20989;-61
2021/08/05 13:39:31;;;;;;;13.55;4.28;;;;;;;16.81;86.52;97998.99;2220850;80;20970;-63
2021/08/05 13:42:31;;;;;;;14.70;4.78;;;;;;;16.80;86.17;97990.70;2220639;80;20930;-58
2021/08/05 13:45:31;;;;;;;11.12;4.28;;;;;;;16.74;86.31;97984.20;2220612;80;20934;-58
2021/08/05 13:48:32;;;;;;;15.43;5.08;;;;;;;16.64;86.72;97968.90;2220728;80;21461;-58
2021/08/05 13:51:33;;;;;;;14.98;4.90;;;;;;;16.55;87.46;97960.06;2220486;80;21096;-58
2021/08/05 13:54:33;;;;;;;18.07;5.78;;;;;;;16.51;87.19;97953.41;2220506;80;20993;-57
2021/08/05 13:57:34;;;;;;;15.35;5.25;;;;;;;16.47;88.09;97947.25;2220301;80;20978;-57